Time;durP1;ratioP1;P1;durP2;ratioP2;P2;SDS_P1;SDS_P2;PMS_P1;PMS_P2;Temp;Humidity;BMP_temperature;BMP_pressure;BME280_temperature;BME280_humidity;BME280_pressure;Samples;Min_cycle;Max_cycle;Signal;HPM_P1;HPM_P2
2023/04/22 07:22:46;;;;;;;9.95;8.93;;;;;;;-145.79;85.03;77260.69;5276104;27;1917072;-78
2023/04/22 07:25:18;;;;;;;12.63;11.32;;;;;;;-145.79;85.18;77269.19;5318846;28;20118;-78
2023/04/22 07:27:49;;;;;;;11.05;10.00;;;;;;;-145.79;84.98;77260.69;5313353;28;20032;-79
2023/04/22 07:30:21;;;;;;;34.17;26.90;;;;;;;-145.79;85.00;77247.97;5301083;28;20104;-78
2023/04/22 07:32:52;;;;;;;12.68;11.05;;;;;;;-145.79;84.70;77250.09;5312960;28;20161;-78
2023/04/22 07:35:23;;;;;;;12.63;10.88;;;;;;;-145.79;85.11;77226.78;5300351;28;20487;-84
2023/04/22 07:37:55;;;;;;;12.10;10.90;;;;;;;-145.79;85.28;77209.81;5311922;28;20364;-79
2023/04/22 07:40:26;;;;;;;11.15;10.02;;;;;;;-145.79;84.88;77203.47;5320901;28;20020;-79
2023/04/22 07:42:58;;;;;;;11.77;10.68;;;;;;;-145.79;84.43;77188.63;5322228;28;20024;-78
2023/04/22 07:45:29;;;;;;;11.27;10.13;;;;;;;-145.79;83.63;77188.63;5322041;28;20024;-75
2023/04/22 07:48:00;;;;;;;11.38;10.27;;;;;;;-145.79;83.42;77186.50;5320676;28;20020;-75
2023/04/22 07:50:32;;;;;;;11.23;10.18;;;;;;;-145.79;82.70;77186.50;5320819;28;20020;-76
2023/04/22 07:53:03;;;;;;;11.50;10.38;;;;;;;-145.79;82.66;77167.44;5321057;28;20028;-77
2023/04/22 07:55:38;;;;;;;12.38;10.98;;;;;;;-145.79;82.22;77156.84;5320164;28;20085;-76
2023/04/22 07:58:09;;;;;;;12.38;11.05;;;;;;;-145.79;82.86;77144.13;5319901;28;20028;-75
2023/04/22 08:00:40;;;;;;;11.80;10.50;;;;;;;-145.79;82.83;77146.25;5321061;28;20031;-75
2023/04/22 08:03:12;;;;;;;11.90;10.70;;;;;;;-145.79;83.05;77116.56;5319850;28;20036;-74
2023/04/22 08:05:43;;;;;;;12.20;11.07;;;;;;;-145.79;82.76;77105.97;5321220;28;20099;-74
2023/04/22 08:08:15;;;;;;;10.48;9.48;;;;;;;-145.79;82.56;77101.72;5319999;28;20024;-74
2023/04/22 08:10:46;;;;;;;12.07;10.88;;;;;;;-145.79;82.73;77089.00;5320464;28;20405;-75
2023/04/22 08:13:17;;;;;;;12.25;11.07;;;;;;;-145.79;82.15;77084.78;5320562;28;20024;-75
2023/04/22 08:15:49;;;;;;;13.43;11.77;;;;;;;-145.79;82.43;77065.69;5303907;28;20421;-76
2023/04/22 08:18:20;;;;;;;13.27;10.32;;;;;;;-145.79;81.61;77061.47;5299484;28;20082;-76
2023/04/22 08:20:52;;;;;;;10.85;9.73;;;;;;;-145.79;80.72;77046.63;5304036;28;20059;-77
2023/04/22 08:23:24;;;;;;;40.35;33.92;;;;;;;-145.79;79.23;77029.66;5318527;28;20024;-74
2023/04/22 08:25:58;;;;;;;10.93;9.85;;;;;;;-145.79;78.90;77025.44;5313997;28;20024;-74
2023/04/22 08:28:30;;;;;;;10.35;9.45;;;;;;;-145.79;79.54;77016.94;5299330;28;20020;-74
2023/04/22 08:31:01;;;;;;;9.98;8.80;;;;;;;-145.79;78.73;77012.72;5303368;28;20027;-72
2023/04/22 08:33:33;;;;;;;17.20;15.50;;;;;;;-145.79;78.96;77002.13;5308740;28;20490;-75
2023/04/22 08:36:04;;;;;;;10.65;9.35;;;;;;;-145.79;77.59;76995.75;5306189;28;20106;-72
2023/04/22 08:38:36;;;;;;;9.32;8.45;;;;;;;-145.79;77.40;76974.56;5305157;28;20067;-73
2023/04/22 08:41:08;;;;;;;9.32;8.43;;;;;;;-145.79;76.55;76961.84;5306168;28;20024;-73
2023/04/22 08:43:41;;;;;;;8.82;8.02;;;;;;;-145.79;74.76;76938.53;5305570;28;20024;-80
2023/04/22 08:46:14;;;;;;;8.80;7.90;;;;;;;-145.79;75.86;76921.59;5304498;28;20024;-76
2023/04/22 08:48:49;;;;;;;8.40;7.45;;;;;;;-145.79;75.49;76904.63;5306008;28;20028;-80
2023/04/22 08:51:21;;;;;;;8.77;7.97;;;;;;;-145.79;74.56;76885.56;5305413;28;20070;-76
2023/04/22 08:53:52;;;;;;;8.68;7.78;;;;;;;-145.79;73.15;76881.31;5295462;28;20055;-79
2023/04/22 08:56:23;;;;;;;8.02;7.32;;;;;;;-145.79;72.62;76887.66;5306328;28;20091;-79
2023/04/22 08:58:55;;;;;;;9.23;8.38;;;;;;;-145.79;72.00;76872.84;5304659;28;20589;-78
2023/04/22 09:01:30;;;;;;;8.70;7.80;;;;;;;-145.79;72.79;76860.13;5306254;28;20061;-78
2023/04/22 09:04:02;;;;;;;9.48;8.18;;;;;;;-145.79;72.68;76851.63;5306073;28;20035;-80
2023/04/22 09:06:33;;;;;;;9.05;8.20;;;;;;;-145.79;72.06;76845.28;5305145;28;20020;-78
2023/04/22 09:09:07;;;;;;;7.80;7.10;;;;;;;-145.79;70.68;76834.69;5294874;28;20536;-84
2023/04/22 09:11:38;;;;;;;8.02;7.32;;;;;;;-145.79;70.21;76843.16;5284427;28;20467;-78
2023/04/22 09:14:09;;;;;;;9.45;7.63;;;;;;;-145.79;69.97;76838.94;5289697;28;20037;-77
2023/04/22 09:16:45;;;;;;;7.72;7.07;;;;;;;-145.79;70.49;76836.81;5284660;28;20025;-74
2023/04/22 09:19:17;;;;;;;7.90;7.10;;;;;;;-145.79;71.03;76830.44;5287189;28;20079;-74
2023/04/22 09:21:48;;;;;;;17.67;13.38;;;;;;;-145.79;70.26;76824.09;5291520;28;20044;-75
2023/04/22 09:24:19;;;;;;;7.15;6.45;;;;;;;-145.79;70.22;76817.72;5292760;28;20162;-75
2023/04/22 09:26:54;;;;;;;8.15;7.45;;;;;;;-145.79;71.19;76800.78;5293960;28;20028;-73
2023/04/22 09:29:29;;;;;;;8.70;7.53;;;;;;;-145.79;70.29;76792.31;5283888;28;20016;-73
2023/04/22 09:32:08;;;;;;;7.78;7.07;;;;;;;-145.79;69.68;76785.94;5298966;28;20077;-74
2023/04/22 09:34:49;;;;;;;8.68;7.55;;;;;;;-145.79;70.33;76756.28;5303301;28;20375;-74
2023/04/22 09:37:24;;;;;;;8.70;6.60;;;;;;;-145.79;70.00;76749.91;5306190;28;20059;-80
2023/04/22 09:39:56;;;;;;;8.30;7.50;;;;;;;-145.79;68.85;76741.44;5305530;28;20658;-81
2023/04/22 09:42:28;;;;;;;10.23;7.85;;;;;;;-145.79;69.57;76724.47;5306019;28;20367;-81
2023/04/22 09:44:59;;;;;;;17.88;15.98;;;;;;;-145.79;69.93;76718.13;5305486;28;20016;-82
2023/04/22 09:47:35;;;;;;;8.60;7.80;;;;;;;-145.79;69.39;76720.25;5303992;28;20020;-81
2023/04/22 09:50:07;;;;;;;7.88;6.70;;;;;;;-145.79;69.21;76722.34;5303885;28;20024;-81
2023/04/22 09:52:38;;;;;;;10.73;7.03;;;;;;;-145.79;68.01;76705.41;5303381;28;20038;-81
2023/04/22 09:55:09;;;;;;;7.93;7.13;;;;;;;-145.79;66.20;76711.75;5301362;28;20020;-79
2023/04/22 09:57:42;;;;;;;9.38;8.43;;;;;;;-145.79;66.81;76694.81;5301380;28;20103;-78
2023/04/22 10:00:17;;;;;;;8.20;7.40;;;;;;;-145.79;67.43;76694.81;5284673;28;20504;-77
2023/04/22 10:02:48;;;;;;;;;;;;;;;-145.79;67.98;76682.09;5288887;28;20538;-78
2023/04/22 10:05:20;;;;;;;9.30;8.40;;;;;;;-145.79;67.66;76660.91;5289278;28;19917;-79
2023/04/22 10:07:52;;;;;;;11.10;8.07;;;;;;;-145.79;66.73;76648.19;5299948;28;20103;-80
2023/04/22 10:10:23;;;;;;;8.48;7.68;;;;;;;-145.79;65.99;76643.94;5290433;28;20027;-79
2023/04/22 10:12:55;;;;;;;8.00;7.20;;;;;;;-145.79;65.94;76643.94;5303263;28;20024;-80
2023/04/22 10:15:32;;;;;;;11.00;7.45;;;;;;;-145.79;65.11;76639.72;5303195;28;20047;-78
2023/04/22 10:18:06;;;;;;;8.10;7.30;;;;;;;-145.79;65.74;76639.72;5304079;28;20020;-79
2023/04/22 10:20:39;;;;;;;7.43;6.43;;;;;;;-145.79;64.47;76633.34;5303683;28;20371;-80
2023/04/22 10:23:18;;;;;;;7.82;7.15;;;;;;;-145.79;63.95;76631.22;5303821;28;20445;-78
2023/04/22 10:25:53;;;;;;;6.65;6.05;;;;;;;-145.79;64.33;76627.00;5303870;28;20016;-76
2023/04/22 10:28:27;;;;;;;6.40;5.75;;;;;;;-145.79;63.30;76614.28;5300260;28;20069;-77
2023/04/22 10:31:05;;;;;;;6.80;6.20;;;;;;;-145.79;63.63;76607.91;5283063;28;20024;-78
2023/04/22 10:33:37;;;;;;;7.43;5.63;;;;;;;-145.79;63.22;76597.31;5283431;28;20134;-79
2023/04/22 10:36:16;;;;;;;5.82;5.28;;;;;;;-145.79;63.46;76576.13;5303851;28;20102;-77
2023/04/22 10:38:53;;;;;;;5.35;4.85;;;;;;;-145.79;62.33;76580.38;5304574;28;20327;-79
2023/04/22 10:41:28;;;;;;;4.80;4.30;;;;;;;-145.79;60.38;76565.53;5303400;28;20024;-77
2023/04/22 10:44:04;;;;;;;7.53;4.93;;;;;;;-145.79;60.17;76582.50;5303213;28;20038;-79
2023/04/22 10:46:41;;;;;;;5.03;4.50;;;;;;;-145.79;60.39;76601.56;5291439;28;20367;-79
2023/04/22 10:49:17;;;;;;;7.68;5.97;;;;;;;-145.79;61.31;76605.81;5304568;28;20115;-80
2023/04/22 10:51:48;;;;;;;4.95;4.35;;;;;;;-145.79;61.35;76618.53;5290879;28;20056;-80
2023/04/22 10:54:30;;;;;;;4.90;4.32;;;;;;;-145.79;61.75;76629.13;5289525;28;20098;-79
2023/04/22 10:57:10;;;;;;;7.22;5.05;;;;;;;-145.79;62.00;76641.84;5287608;28;20370;-77
2023/04/22 10:59:48;;;;;;;9.18;6.25;;;;;;;-145.79;62.24;76648.19;5302313;28;20169;-76
2023/04/22 11:02:21;;;;;;;5.57;5.03;;;;;;;-145.79;62.59;76665.16;5301891;28;20024;-77
2023/04/22 11:05:26;;;;;;;5.68;4.70;;;;;;;-145.79;62.95;76669.38;5301577;28;20021;-76
2023/04/22 11:08:03;;;;;;;6.28;5.05;;;;;;;-145.79;65.19;76669.38;5281545;28;20024;-78
2023/04/22 11:10:46;;;;;;;10.93;7.90;;;;;;;-145.79;66.67;76694.81;5285677;28;20029;-77
2023/04/22 11:13:19;;;;;;;8.38;6.88;;;;;;;-145.79;68.98;76696.94;5290310;28;20039;-77
2023/04/22 11:15:53;;;;;;;6.85;5.82;;;;;;;-145.79;71.71;76711.75;5298878;28;20061;-76
2023/04/22 11:18:28;;;;;;;8.90;7.22;;;;;;;-145.79;73.23;76716.00;5288952;28;20036;-77
2023/04/22 11:21:07;;;;;;;7.28;6.00;;;;;;;-145.79;73.15;76724.47;5293986;28;20063;-77
2023/04/22 11:23:50;;;;;;;7.53;6.65;;;;;;;-145.79;74.03;76720.25;5291165;28;20107;-77
2023/04/22 11:26:34;;;;;;;8.45;6.82;;;;;;;-145.79;74.94;76730.84;5291947;28;20386;-77
2023/04/22 11:29:07;;;;;;;6.13;5.53;;;;;;;-145.79;75.56;76739.31;5289638;28;20058;-77
2023/04/22 11:31:45;;;;;;;7.97;6.93;;;;;;;-145.79;76.12;76749.91;5291350;28;20019;-76
2023/04/22 11:34:17;;;;;;;7.47;6.78;;;;;;;-145.79;76.24;76756.28;5290038;28;20032;-76
2023/04/22 11:36:48;;;;;;;8.55;7.85;;;;;;;-145.79;75.97;76762.63;5292326;28;20023;-76
2023/04/22 11:39:19;;;;;;;9.07;8.15;;;;;;;-145.79;76.59;76762.63;5288980;28;20034;-76
2023/04/22 11:41:51;;;;;;;9.27;8.07;;;;;;;-145.79;77.36;76771.09;5287772;28;20456;-76
2023/04/22 11:44:22;;;;;;;7.65;6.95;;;;;;;-145.79;76.72;76762.63;5291026;28;20383;-76
2023/04/22 11:46:55;;;;;;;7.82;7.13;;;;;;;-145.79;76.50;76773.22;5289103;28;20020;-75
2023/04/22 11:49:27;;;;;;;9.35;7.40;;;;;;;-145.79;76.94;76771.09;5287860;28;20028;-76
2023/04/22 11:51:58;;;;;;;9.25;8.27;;;;;;;-145.79;77.14;76764.75;5289454;28;20016;-76
2023/04/22 11:54:34;;;;;;;8.25;7.38;;;;;;;-145.79;77.13;76762.63;5287337;28;20035;-74
2023/04/22 11:57:07;;;;;;;8.55;7.75;;;;;;;-145.79;77.50;76762.63;5287748;28;20036;-72
2023/04/22 11:59:39;;;;;;;30.95;27.85;;;;;;;-145.79;77.79;76762.63;5285492;28;20086;-76
2023/04/22 12:02:10;;;;;;;10.65;9.55;;;;;;;-145.79;78.66;76758.38;5289308;28;20033;-76
2023/04/22 12:04:42;;;;;;;9.93;8.18;;;;;;;-145.79;78.76;76752.03;5288837;28;20050;-72
2023/04/22 12:07:14;;;;;;;9.60;8.70;;;;;;;-145.79;77.52;76752.03;5290231;28;20017;-75
2023/04/22 12:09:45;;;;;;;18.80;14.38;;;;;;;-145.79;78.82;76743.56;5292079;28;22975;-75
2023/04/22 12:12:16;;;;;;;10.05;9.05;;;;;;;-145.79;78.51;76737.19;5292336;28;20016;-75
2023/04/22 12:14:48;;;;;;;10.52;9.50;;;;;;;-145.79;78.91;76732.97;5290295;28;20032;-74
2023/04/22 12:17:23;;;;;;;11.85;10.70;;;;;;;-145.79;77.23;76741.44;5293948;28;20109;-75
2023/04/22 12:19:55;;;;;;;9.65;8.82;;;;;;;-145.79;78.99;76732.97;5292771;28;20016;-76
2023/04/22 12:22:28;;;;;;;10.85;9.80;;;;;;;-145.79;78.51;76745.69;5286665;28;20048;-74
2023/04/22 12:25:00;;;;;;;10.15;9.23;;;;;;;-145.79;78.88;76752.03;5292531;28;20032;-76
2023/04/22 12:27:31;;;;;;;10.35;8.77;;;;;;;-145.79;79.02;76752.03;5293263;28;20029;-75
2023/04/22 12:30:03;;;;;;;10.10;9.15;;;;;;;-145.79;78.78;76775.34;5293429;28;20028;-76
2023/04/22 12:32:34;;;;;;;10.48;9.55;;;;;;;-145.79;79.12;76766.88;5289669;28;20438;-76
2023/04/22 12:35:10;;;;;;;11.50;9.75;;;;;;;-145.79;79.32;76773.22;5292382;28;20054;-75
2023/04/22 12:37:42;;;;;;;9.85;8.93;;;;;;;-145.79;79.75;76781.69;5291273;28;20028;-74
2023/04/22 12:40:13;;;;;;;10.02;9.02;;;;;;;-145.79;79.63;76790.19;5291577;28;20395;-74
2023/04/22 12:42:45;;;;;;;17.88;16.33;;;;;;;-145.79;80.64;76805.00;5293202;28;20064;-73
2023/04/22 12:45:16;;;;;;;13.43;10.32;;;;;;;-145.79;81.84;76815.63;5291067;28;20078;-73
2023/04/22 12:47:49;;;;;;;12.05;10.25;;;;;;;-145.79;81.83;76832.56;5290771;28;20107;-74
2023/04/22 12:50:20;;;;;;;14.63;13.00;;;;;;;-145.79;83.65;76838.94;5290890;28;20016;-72
2023/04/22 12:52:51;;;;;;;12.02;10.10;;;;;;;-145.79;84.91;76834.69;5291389;28;20379;-78
2023/04/22 12:55:23;;;;;;;11.75;10.55;;;;;;;-145.79;85.11;76841.03;5289808;28;20474;-77
2023/04/22 12:57:55;;;;;;;13.73;12.38;;;;;;;-145.79;85.22;76838.94;5292583;28;20024;-77
2023/04/22 13:00:27;;;;;;;11.20;10.15;;;;;;;-145.79;85.73;76841.03;5294038;28;20032;-76
2023/04/22 13:02:58;;;;;;;11.73;10.68;;;;;;;-145.79;86.01;76851.63;5295290;28;20032;-75
2023/04/22 13:05:29;;;;;;;12.82;11.52;;;;;;;-145.79;87.17;76853.75;5290916;28;20039;-78
2023/04/22 13:08:01;;;;;;;14.70;13.30;;;;;;;-145.79;87.92;76855.88;5288519;28;20021;-76
2023/04/22 13:10:32;;;;;;;12.82;11.73;;;;;;;-145.79;88.21;76855.88;5292848;28;20081;-77
2023/04/22 13:13:05;;;;;;;13.30;12.10;;;;;;;-145.79;88.58;76853.75;5291988;28;20048;-75
2023/04/22 13:15:37;;;;;;;12.23;11.02;;;;;;;-145.79;88.44;76847.41;5291986;28;20024;-76
2023/04/22 13:18:08;;;;;;;13.15;12.00;;;;;;;-145.79;89.21;76838.94;5291153;28;20020;-77
2023/04/22 13:20:41;;;;;;;12.63;11.43;;;;;;;-145.79;88.52;76838.94;5286512;28;20070;-77
2023/04/22 13:23:13;;;;;;;11.77;10.73;;;;;;;-145.79;87.98;76832.56;5291165;28;20024;-79
2023/04/22 13:25:44;;;;;;;13.80;12.25;;;;;;;-145.79;88.35;76843.16;5290317;28;20035;-80
2023/04/22 13:28:16;;;;;;;13.18;11.77;;;;;;;-145.79;88.70;76838.94;5290936;28;20016;-77
2023/04/22 13:30:47;;;;;;;11.80;10.73;;;;;;;-145.79;88.15;76834.69;5291386;28;20089;-78
2023/04/22 13:33:18;;;;;;;13.43;12.10;;;;;;;-145.79;88.55;76826.22;5290281;28;20065;-78
2023/04/22 13:35:49;;;;;;;12.40;11.40;;;;;;;-145.79;89.00;76826.22;5293161;28;20025;-79
2023/04/22 13:38:21;;;;;;;12.65;11.55;;;;;;;-145.79;88.80;76824.09;5286396;28;20040;-79
2023/04/22 13:40:52;;;;;;;13.07;11.98;;;;;;;-145.79;88.16;76832.56;5292506;28;20430;-79
2023/04/22 13:43:23;;;;;;;12.32;11.25;;;;;;;-145.79;88.73;76819.84;5291030;28;20294;-75
2023/04/22 13:45:55;;;;;;;14.32;12.13;;;;;;;-145.79;88.63;76815.63;5288130;28;20031;-78
2023/04/22 13:48:29;;;;;;;13.18;11.88;;;;;;;-145.79;88.98;76809.25;5288934;28;20055;-76
2023/04/22 13:51:02;;;;;;;13.10;11.95;;;;;;;-145.79;88.97;76805.00;5290816;28;20016;-79
2023/04/22 13:53:33;;;;;;;12.55;11.45;;;;;;;-145.79;88.23;76817.72;5290199;28;20032;-77
2023/04/22 13:56:05;;;;;;;19.95;18.15;;;;;;;-145.79;88.39;76805.00;5294149;28;20024;-79
2023/04/22 13:58:38;;;;;;;14.05;12.75;;;;;;;-145.79;88.23;76805.00;5286535;28;20035;-78
2023/04/22 14:01:10;;;;;;;12.50;11.30;;;;;;;-145.79;89.17;76800.78;5292292;28;20032;-78
2023/04/22 14:03:44;;;;;;;12.05;11.05;;;;;;;-145.79;88.37;76802.91;5290516;28;20435;-77
2023/04/22 14:06:16;;;;;;;11.98;10.90;;;;;;;-145.79;88.98;76805.00;5288412;28;20020;-77
2023/04/22 14:08:47;;;;;;;12.75;11.73;;;;;;;-145.79;89.78;76805.00;5291452;28;20021;-78
2023/04/22 14:11:18;;;;;;;12.82;11.73;;;;;;;-145.79;89.91;76809.25;5291398;28;20043;-78
2023/04/22 14:13:50;;;;;;;12.20;11.18;;;;;;;-145.79;88.80;76807.13;5293265;28;20090;-78
2023/04/22 14:16:21;;;;;;;12.13;10.98;;;;;;;-145.79;89.11;76800.78;5293766;28;20112;-80
2023/04/22 14:18:54;;;;;;;12.05;10.85;;;;;;;-145.79;88.87;76817.72;5288937;28;20052;-81
2023/04/22 14:21:25;;;;;;;12.93;11.82;;;;;;;-145.79;89.50;76809.25;5291348;28;20487;-82
2023/04/22 14:23:56;;;;;;;13.75;12.00;;;;;;;-145.79;90.59;76800.78;5291472;28;20195;-82
2023/04/22 14:26:28;;;;;;;13.27;12.05;;;;;;;-145.79;90.98;76811.38;5294354;28;20043;-82
2023/04/22 14:28:59;;;;;;;14.18;12.80;;;;;;;-145.79;91.76;76830.44;5298246;28;20482;-83
2023/04/22 14:31:31;;;;;;;13.05;11.85;;;;;;;-145.79;92.53;76838.94;5304873;28;20091;-81
2023/04/22 14:34:02;;;;;;;13.48;12.27;;;;;;;-145.79;92.76;76834.69;5304240;28;20063;-82
2023/04/22 14:36:35;;;;;;;19.85;17.92;;;;;;;-145.79;92.71;76845.28;5304072;28;20379;-83
2023/04/22 14:39:06;;;;;;;12.98;11.88;;;;;;;-145.79;92.20;76855.88;5303678;28;20028;-82
2023/04/22 14:41:38;;;;;;;10.65;9.75;;;;;;;-145.79;92.53;76853.75;5304772;28;20086;-80
2023/04/22 14:44:09;;;;;;;10.65;9.63;;;;;;;-145.79;92.47;76849.53;5303006;28;20032;-80
2023/04/22 14:46:41;;;;;;;11.23;10.23;;;;;;;-145.79;93.32;76841.03;5303676;28;20071;-80
2023/04/22 14:49:12;;;;;;;11.93;9.50;;;;;;;-145.79;93.56;76838.94;5303094;28;20024;-78
2023/04/22 14:51:43;;;;;;;9.93;9.02;;;;;;;-145.79;93.82;76845.28;5303763;28;20123;-79
2023/04/22 14:54:14;;;;;;;9.68;8.88;;;;;;;-145.79;94.08;76836.81;5303564;28;20089;-77
2023/04/22 14:56:46;;;;;;;10.80;9.80;;;;;;;-145.79;93.84;76834.69;5302759;28;20024;-78
2023/04/22 14:59:18;;;;;;;9.00;8.18;;;;;;;-145.79;94.35;76832.56;5302184;28;20044;-77
2023/04/22 15:01:49;;;;;;;9.63;8.65;;;;;;;-145.79;94.92;76836.81;5302260;28;20130;-72
2023/04/22 15:04:21;;;;;;;8.35;7.32;;;;;;;-145.79;95.68;76834.69;5302841;28;20106;-71
2023/04/22 15:06:56;;;;;;;8.45;7.55;;;;;;;-145.79;95.35;76838.94;5302334;28;20023;-71
2023/04/22 15:09:27;;;;;;;8.35;7.38;;;;;;;-145.79;96.00;76832.56;5294750;28;20021;-72
2023/04/22 15:11:58;;;;;;;8.40;7.60;;;;;;;-145.79;96.41;76836.81;5281921;28;20056;-72
2023/04/22 15:14:32;;;;;;;7.82;7.22;;;;;;;-145.79;96.80;76834.69;5282449;28;20052;-76
2023/04/22 15:17:04;;;;;;;7.18;6.63;;;;;;;-145.79;96.11;76834.69;5303207;28;20111;-76
2023/04/22 15:19:36;;;;;;;7.43;6.50;;;;;;;-145.79;96.46;76843.16;5296394;28;20297;-70
2023/04/22 15:22:07;;;;;;;7.35;6.68;;;;;;;-145.79;96.90;76836.81;5303130;28;20051;-70
2023/04/22 15:24:38;;;;;;;9.38;8.35;;;;;;;-145.79;97.04;76843.16;5301682;28;20021;-69
2023/04/22 15:27:10;;;;;;;7.68;6.97;;;;;;;-145.79;97.35;76841.03;5303398;28;20364;-76
2023/04/22 15:29:45;;;;;;;5.55;5.15;;;;;;;-145.79;97.11;76843.16;5303853;28;20027;-75
2023/04/22 15:32:16;;;;;;;5.03;4.72;;;;;;;-145.79;97.07;76847.41;5302443;28;20024;-74
2023/04/22 15:34:47;;;;;;;5.47;5.07;;;;;;;-145.79;97.73;76847.41;5300802;28;20020;-74
2023/04/22 15:37:19;;;;;;;19.15;17.52;;;;;;;-145.79;98.23;76845.28;5293123;28;20352;-73
2023/04/22 15:39:53;;;;;;;28.40;26.15;;;;;;;-145.79;98.06;76851.63;5292731;28;20067;-76
2023/04/22 15:42:24;;;;;;;6.95;6.35;;;;;;;-145.79;98.45;76860.13;5290747;28;20021;-75
2023/04/22 15:44:55;;;;;;;7.97;7.10;;;;;;;-145.79;98.71;76851.63;5296953;28;20020;-76
2023/04/22 15:47:27;;;;;;;5.72;5.22;;;;;;;-145.79;98.85;76843.16;5294966;28;20078;-77
2023/04/22 15:50:05;;;;;;;5.53;5.13;;;;;;;-145.79;98.43;76851.63;5295145;28;20054;-78
2023/04/22 15:52:37;;;;;;;14.73;13.32;;;;;;;-145.79;98.60;76851.63;5295625;28;20131;-82
2023/04/22 15:55:09;;;;;;;8.73;7.93;;;;;;;-145.79;98.88;76845.28;5301399;28;20020;-81
2023/04/22 15:57:40;;;;;;;5.57;5.13;;;;;;;-145.79;98.74;76847.41;5298183;28;20443;-80
2023/04/22 16:00:12;;;;;;;5.07;4.70;;;;;;;-145.79;99.00;76858.00;5294364;28;20021;-80
2023/04/22 16:02:45;;;;;;;6.70;6.20;;;;;;;-145.79;98.89;76860.13;5298180;28;20028;-80
2023/04/22 16:05:16;;;;;;;7.47;6.93;;;;;;;-145.79;98.74;76868.59;5298037;28;20096;-78
2023/04/22 16:07:47;;;;;;;10.00;9.20;;;;;;;-145.79;99.23;76872.84;5294473;28;20509;-79
2023/04/22 16:10:19;;;;;;;8.85;8.13;;;;;;;-145.79;99.13;76877.06;5289693;28;20054;-79
2023/04/22 16:12:50;;;;;;;8.70;8.10;;;;;;;-145.79;99.01;76898.25;5290838;28;20095;-77
2023/04/22 16:15:24;;;;;;;12.13;11.13;;;;;;;-145.79;96.96;76936.41;5289947;28;20488;-79
2023/04/22 16:17:56;;;;;;;12.43;11.43;;;;;;;-145.79;95.05;76972.44;5289159;28;20021;-79
2023/04/22 16:20:28;;;;;;;14.10;12.90;;;;;;;-145.79;95.43;76995.75;5296602;28;20096;-79
2023/04/22 16:22:59;;;;;;;14.40;13.10;;;;;;;-145.79;95.46;77012.72;5290193;28;20082;-80
2023/04/22 16:25:30;;;;;;;16.63;15.13;;;;;;;-145.79;96.00;77023.31;5294458;28;20040;-78
2023/04/22 16:28:02;;;;;;;14.77;13.57;;;;;;;-145.79;94.89;77065.69;5288436;28;20451;-79
2023/04/22 16:30:33;;;;;;;16.13;14.73;;;;;;;-145.79;94.44;77078.41;5293484;28;20032;-78
2023/04/22 16:33:04;;;;;;;15.63;14.43;;;;;;;-145.79;94.62;77097.50;5306510;28;20032;-79
2023/04/22 16:35:36;;;;;;;14.05;12.95;;;;;;;-145.79;94.39;77078.41;5301168;28;20028;-79
2023/04/22 16:38:08;;;;;;;14.05;12.95;;;;;;;-145.79;93.77;77084.78;5292524;28;20020;-79
2023/04/22 16:40:40;;;;;;;14.10;12.90;;;;;;;-145.79;93.87;77091.13;5294679;28;20099;-80
2023/04/22 16:43:11;;;;;;;14.73;13.55;;;;;;;-145.79;94.71;77072.06;5298422;28;20083;-80
2023/04/22 16:45:42;;;;;;;16.30;14.90;;;;;;;-145.79;93.90;77093.25;5295325;28;20050;-80
2023/04/22 16:48:14;;;;;;;18.42;16.92;;;;;;;-145.79;93.82;77103.84;5298118;28;20051;-81
2023/04/22 16:50:46;;;;;;;17.10;15.60;;;;;;;-145.79;93.42;77112.31;5296519;28;20020;-80
2023/04/22 16:53:17;;;;;;;17.05;15.55;;;;;;;-145.79;93.37;77122.94;5302865;28;20035;-80
